createdAt,value
2023-03-03T00:00:36.762Z,4.1
2023-03-03T00:01:25.526Z,4
2023-03-03T00:02:16.889Z,3.9
2023-03-03T00:03:51.455Z,4
2023-03-03T00:04:16.968Z,4.1
2023-03-03T00:05:20.870Z,4
2023-03-03T00:06:36.614Z,3.8
2023-03-03T00:07:25.211Z,3.7
2023-03-03T00:08:17.220Z,3.7
2023-03-03T00:09:51.023Z,3.6
2023-03-03T00:10:17.302Z,3.6
2023-03-03T00:11:26.891Z,3.7
2023-03-03T00:12:40.791Z,3.6
2023-03-03T00:13:24.268Z,3.6
2023-03-03T00:14:17.573Z,3.6
2023-03-03T00:15:56.410Z,3.7
2023-03-03T00:16:17.749Z,3.6
2023-03-03T00:17:25.900Z,3.7
2023-03-03T00:18:37.424Z,3.6
2023-03-03T00:19:28.560Z,3.5
2023-03-03T00:20:17.879Z,3.5
2023-03-03T00:21:30.897Z,3.4
2023-03-03T00:22:18.056Z,3.4
2023-03-03T00:23:27.138Z,3.6
2023-03-03T00:24:40.245Z,3.4
2023-03-03T00:25:30.959Z,3.5
2023-03-03T00:26:18.257Z,3.7
2023-03-03T00:27:36.310Z,3.8
2023-03-03T00:28:18.413Z,3.7
2023-03-03T00:29:28.274Z,3.7
2023-03-03T00:30:40.686Z,3.6
2023-03-03T00:31:29.129Z,3.5
2023-03-03T00:32:18.709Z,3.6
2023-03-03T00:34:01.017Z,3.6
2023-03-03T00:34:18.819Z,3.6
2023-03-03T00:35:30.695Z,3.6
2023-03-03T00:36:47.420Z,3.6
2023-03-03T00:37:27.449Z,3.6
2023-03-03T00:38:19.026Z,3.7
2023-03-03T00:39:21.117Z,3.8
2023-03-03T00:40:19.116Z,3.8
2023-03-03T00:41:28.215Z,3.5
2023-03-03T00:42:42.303Z,3.6
2023-03-03T00:43:28.113Z,3.8
2023-03-03T00:44:19.284Z,3.7
2023-03-03T00:45:57.556Z,3.8
2023-03-03T00:46:19.463Z,3.8
2023-03-03T00:47:31.154Z,3.9
2023-03-03T00:48:42.424Z,3.9
2023-03-03T00:49:30.129Z,3.9
2023-03-03T00:50:19.662Z,3.9
2023-03-03T00:51:30.366Z,3.9
2023-03-03T00:52:19.741Z,3.9
2023-03-03T00:53:35.130Z,3.8
2023-03-03T00:54:46.690Z,3.8
2023-03-03T00:55:29.073Z,3.8
2023-03-03T00:56:19.981Z,3.9
2023-03-03T00:57:30.971Z,4
2023-03-03T00:58:20.112Z,4.1
2023-03-03T00:59:28.886Z,4
2023-03-03T01:00:44.186Z,4
2023-03-03T01:01:30.544Z,3.9
2023-03-03T01:02:20.400Z,3.9
2023-03-03T01:04:04.425Z,3.8
2023-03-03T01:04:20.403Z,3.7
2023-03-03T01:05:25.134Z,3.6
2023-03-03T01:06:43.358Z,3.5
2023-03-03T01:07:34.185Z,3.5
2023-03-03T01:08:20.654Z,3.6
2023-03-03T01:09:55.643Z,3.5
2023-03-03T01:10:20.661Z,3.4
2023-03-03T01:11:28.172Z,3.4
2023-03-03T01:12:46.756Z,3.4
2023-03-03T01:13:33.054Z,3.1
2023-03-03T01:14:21.050Z,3
2023-03-03T01:16:06.191Z,2.9
2023-03-03T01:16:21.102Z,3
2023-03-03T01:17:33.258Z,3.2
2023-03-03T01:18:49.208Z,3.3
2023-03-03T01:19:33.567Z,3.3
2023-03-03T01:20:26.402Z,3.3
2023-03-03T01:21:28.974Z,3.2
2023-03-03T01:22:28.384Z,3.3
2023-03-03T01:23:40.719Z,3.2
2023-03-03T01:25:00.487Z,3.1
2023-03-03T01:25:38.410Z,3.1
2023-03-03T01:26:21.641Z,3
2023-03-03T01:27:40.389Z,3
2023-03-03T01:28:25.242Z,2.8
2023-03-03T01:29:34.620Z,2.6
2023-03-03T01:31:04.492Z,2.5
2023-03-03T01:31:44.923Z,2.6
2023-03-03T01:32:22.014Z,2.9
2023-03-03T01:33:44.952Z,2.9
2023-03-03T01:34:33.466Z,3.1
2023-03-03T01:35:22.169Z,3
2023-03-03T01:37:16.979Z,2.8
2023-03-03T01:37:22.183Z,2.8
2023-03-03T01:38:22.356Z,3
2023-03-03T01:40:18.328Z,3
2023-03-03T01:40:57.723Z,2.7
2023-03-03T01:41:23.692Z,2.5
2023-03-03T01:44:41.057Z,2
2023-03-03T01:45:22.660Z,2.2
2023-03-03T01:46:22.836Z,2.4
2023-03-03T01:47:22.796Z,2.6
2023-03-03T01:48:22.852Z,2.7
2023-03-03T01:49:22.911Z,2.8
2023-03-03T01:50:22.981Z,2.8
2023-03-03T01:51:40.306Z,2.9
2023-03-03T01:52:23.081Z,2.8
2023-03-03T01:53:23.221Z,2.7
2023-03-03T01:54:23.245Z,2.8
2023-03-03T01:55:23.279Z,2.7
2023-03-03T01:56:23.381Z,2.4
2023-03-03T01:57:42.451Z,2.4
2023-03-03T01:58:23.476Z,2.5
2023-03-03T01:59:23.486Z,2.6
2023-03-03T02:00:23.559Z,2.6
2023-03-03T02:01:23.585Z,2.3
2023-03-03T02:02:23.659Z,2.2
2023-03-03T02:03:23.890Z,2.2
2023-03-03T02:04:23.817Z,2.1
2023-03-03T02:05:23.907Z,2.2
2023-03-03T02:06:23.896Z,2.2
2023-03-03T02:07:24.011Z,2.3
2023-03-03T02:08:24.026Z,2.5
2023-03-03T02:09:39.175Z,2.6
2023-03-03T02:10:24.201Z,2.6
2023-03-03T02:11:24.168Z,2.6
2023-03-03T02:12:24.223Z,2.7
2023-03-03T02:13:24.335Z,2.6
2023-03-03T02:14:24.484Z,2.4
2023-03-03T02:15:30.220Z,2.5
2023-03-03T02:16:24.590Z,2.6
2023-03-03T02:17:32.954Z,2.6
2023-03-03T02:18:24.587Z,2.6
2023-03-03T02:19:34.456Z,2.6
2023-03-03T02:20:24.804Z,2.7
2023-03-03T02:21:47.459Z,2.6
2023-03-03T02:22:24.791Z,2.6
2023-03-03T02:23:46.891Z,2.6
2023-03-03T02:24:53.047Z,2.5
2023-03-03T02:25:47.706Z,2.3
2023-03-03T02:26:25.046Z,2.1
2023-03-03T02:27:47.016Z,2.1
2023-03-03T02:28:25.250Z,2.2
2023-03-03T02:29:47.580Z,2.3
2023-03-03T02:30:30.421Z,2.4
2023-03-03T02:31:47.941Z,2.5
2023-03-03T02:32:25.561Z,2.3
2023-03-03T02:33:32.624Z,2.2
2023-03-03T02:34:31.932Z,2.1
2023-03-03T02:35:39.448Z,2.2
2023-03-03T02:36:38.535Z,2
2023-03-03T02:37:38.191Z,2.1
2023-03-03T02:38:27.247Z,2
2023-03-03T02:39:32.372Z,2.1
2023-03-03T02:40:27.324Z,2.3
2023-03-03T02:41:27.360Z,2.2
2023-03-03T02:42:57.766Z,2.3
2023-03-03T02:43:27.419Z,2.3
2023-03-03T02:44:27.419Z,2.3
2023-03-03T02:45:48.031Z,2.2
2023-03-03T02:46:27.672Z,2.2
2023-03-03T02:47:27.664Z,2.2
2023-03-03T02:48:53.276Z,2.2
2023-03-03T02:49:27.805Z,2.1
2023-03-03T02:50:27.868Z,2
2023-03-03T02:51:35.229Z,2
2023-03-03T02:52:27.983Z,1.8
2023-03-03T02:53:32.971Z,1.7
2023-03-03T02:54:28.059Z,1.7
2023-03-03T04:31:36.872Z,1.7
2023-03-03T04:34:20.804Z,1
2023-03-03T04:35:15.929Z,1
2023-03-03T04:36:15.893Z,1.1
2023-03-03T04:37:16.175Z,1.2
2023-03-03T04:38:15.956Z,1.1
2023-03-03T04:39:16.079Z,1.1
2023-03-03T04:40:16.253Z,1.1
2023-03-03T04:41:21.784Z,1.2
2023-03-03T04:42:17.513Z,1.1
2023-03-03T04:43:17.037Z,0.9
2023-03-03T04:44:16.388Z,0.7
2023-03-03T04:45:16.468Z,0.7
2023-03-03T04:46:16.531Z,0.6
2023-03-03T04:47:16.855Z,0.4
2023-03-03T04:48:17.346Z,0.6
2023-03-03T04:49:16.650Z,0.8
2023-03-03T04:50:16.667Z,0.9
2023-03-03T04:51:16.730Z,0.8
2023-03-03T04:52:16.784Z,0.8
2023-03-03T04:53:16.817Z,0.8
2023-03-03T04:56:19.836Z,0.9
2023-03-03T04:58:21.173Z,0.7
2023-03-03T05:00:41.941Z,0.5
2023-03-03T05:07:30.676Z,0.4
2023-03-03T05:07:37.669Z,0.5
2023-03-03T05:08:17.698Z,0.5
2023-03-03T05:09:48.203Z,0.6
2023-03-03T05:12:29.876Z,0.9
2023-03-03T05:15:20.540Z,0.9
2023-03-03T05:16:38.522Z,0.8
2023-03-03T05:17:27.199Z,0.7
2023-03-03T05:18:18.428Z,0.7
2023-03-03T05:19:24.364Z,0.7
2023-03-03T05:20:18.505Z,0.6
2023-03-03T05:21:23.644Z,0.6
2023-03-03T05:22:37.409Z,0.5
2023-03-03T05:23:22.495Z,0.2
2023-03-03T05:24:22.117Z,0.3
2023-03-03T05:25:56.724Z,0.4
2023-03-03T05:26:18.657Z,0.5
2023-03-03T05:27:22.114Z,0.4
2023-03-03T05:28:18.790Z,0.4
2023-03-03T05:29:20.885Z,0.3
2023-03-03T05:30:33.865Z,0.2
2023-03-03T05:31:42.856Z,0.2
2023-03-03T05:32:19.058Z,0
2023-03-03T05:33:19.108Z,0.2
2023-03-03T05:34:19.065Z,0.2
2023-03-03T05:35:19.136Z,0
2023-03-03T05:36:19.151Z,-0.1
2023-03-03T05:37:24.232Z,0.3
2023-03-03T05:38:41.890Z,0.5
2023-03-03T05:39:19.357Z,0.4
2023-03-03T05:40:19.487Z,0.4
2023-03-03T05:41:19.954Z,0.3
2023-03-03T05:42:19.514Z,0.1
2023-03-03T05:43:19.569Z,0.1
2023-03-03T05:44:46.133Z,0
2023-03-03T05:45:19.640Z,0
2023-03-03T05:46:19.746Z,0
2023-03-03T05:47:46.586Z,0.3
2023-03-03T05:48:19.977Z,0.5
2023-03-03T05:49:20.053Z,0.5
2023-03-03T05:50:20.257Z,0.4
2023-03-03T05:51:20.253Z,0.2
2023-03-03T05:52:26.716Z,0.2
2023-03-03T05:53:20.266Z,0.3
2023-03-03T05:54:25.703Z,0.3
2023-03-03T05:55:20.537Z,0.3
2023-03-03T05:56:41.259Z,0.3
2023-03-03T05:57:20.582Z,0.1
2023-03-03T05:58:26.950Z,0
2023-03-03T05:59:33.098Z,0
2023-03-03T06:00:36.460Z,-0.2
2023-03-03T06:01:20.707Z,-0.2
2023-03-03T06:02:22.412Z,-0.1
2023-03-03T06:03:21.945Z,-0.2
2023-03-03T06:04:20.867Z,-0.2
2023-03-03T06:05:33.135Z,-0.2
2023-03-03T06:06:21.029Z,-0.1
2023-03-03T06:07:21.048Z,-0.1
2023-03-03T06:08:21.219Z,-0.2
2023-03-03T06:09:38.157Z,-0.2
2023-03-03T06:10:21.257Z,-0.2
2023-03-03T06:11:21.256Z,-0.2
2023-03-03T06:12:50.645Z,-0.2
2023-03-03T06:13:21.395Z,0
2023-03-03T06:14:31.620Z,0.1
2023-03-03T06:15:21.436Z,0
2023-03-03T06:16:27.698Z,0.1
2023-03-03T06:17:34.716Z,0.1
2023-03-03T06:18:27.381Z,0.1
2023-03-03T06:19:21.668Z,0
2023-03-03T06:20:28.396Z,0.1
2023-03-03T06:21:21.817Z,0.2
2023-03-03T06:22:46.343Z,0.5
2023-03-03T06:23:35.961Z,0.7
2023-03-03T06:24:32.620Z,0.9
2023-03-03T06:25:22.110Z,0.7
2023-03-03T06:26:41.520Z,0.7
2023-03-03T06:27:22.186Z,0.6
2023-03-03T06:28:34.140Z,0.4
2023-03-03T06:29:38.014Z,0.3
2023-03-03T06:30:35.264Z,0.5
2023-03-03T06:31:22.474Z,0.6
2023-03-03T06:32:37.414Z,0.7
2023-03-03T06:33:22.544Z,0.8
2023-03-03T06:34:33.587Z,0.8
2023-03-03T06:35:38.459Z,0.9
2023-03-03T06:36:33.317Z,0.7
2023-03-03T06:37:22.779Z,0.4
2023-03-03T06:38:36.852Z,0.4
2023-03-03T06:39:22.965Z,0.4
2023-03-03T06:40:46.826Z,0.4
2023-03-03T06:41:30.645Z,0.5
2023-03-03T06:42:49.842Z,0.5
2023-03-03T06:43:31.934Z,0.5
2023-03-03T06:44:38.461Z,0.6
2023-03-03T06:45:23.268Z,0.5
2023-03-03T06:46:23.332Z,0.4
2023-03-03T06:47:46.869Z,0.3
2023-03-03T06:48:23.429Z,0.2
2023-03-03T06:49:23.513Z,0.1
2023-03-03T06:50:56.579Z,0
2023-03-03T06:51:28.588Z,0.1
2023-03-03T06:52:23.649Z,0.1
2023-03-03T06:53:46.940Z,0.3
2023-03-03T06:54:26.172Z,0.6
2023-03-03T06:55:23.839Z,0.6
2023-03-03T06:56:45.265Z,0.5
2023-03-03T06:57:23.890Z,0.4
2023-03-03T06:58:23.937Z,0.4
2023-03-03T06:59:49.045Z,0.4
2023-03-03T07:00:24.141Z,0.3
2023-03-03T07:01:24.320Z,0.4
2023-03-03T07:02:50.753Z,0.5
2023-03-03T07:03:24.320Z,0.6
2023-03-03T07:04:24.402Z,0.5
2023-03-03T07:05:59.772Z,0.6
2023-03-03T07:06:24.504Z,0.4
2023-03-03T07:07:24.546Z,0.6
2023-03-03T07:08:53.188Z,0.9
2023-03-03T07:09:24.688Z,0.8
2023-03-03T07:10:24.727Z,0.9
2023-03-03T07:11:55.551Z,0.8
2023-03-03T07:12:24.859Z,0.8
2023-03-03T07:13:24.899Z,0.7
2023-03-03T07:14:49.711Z,0.7
2023-03-03T07:15:25.089Z,0.7
2023-03-03T07:16:25.133Z,0.6
2023-03-03T07:17:56.293Z,0.8
2023-03-03T07:18:25.200Z,1
2023-03-03T07:19:25.261Z,1
2023-03-03T07:20:56.129Z,1.1
2023-03-03T07:21:25.348Z,1.1
2023-03-03T07:22:25.410Z,0.9
2023-03-03T07:23:57.752Z,0.8
2023-03-03T07:24:25.532Z,1
2023-03-03T07:25:25.580Z,1
2023-03-03T07:26:56.384Z,1
2023-03-03T07:27:25.707Z,0.9
2023-03-03T07:28:25.710Z,0.9
2023-03-03T07:29:25.799Z,1
2023-03-03T07:30:25.816Z,1
2023-03-03T07:31:25.884Z,0.9
2023-03-03T07:32:26.041Z,0.9
2023-03-03T07:33:35.212Z,0.9
2023-03-03T07:34:26.094Z,0.9
2023-03-03T07:35:28.875Z,1.1
2023-03-03T07:36:26.198Z,1
2023-03-03T08:02:29.120Z,0.5
2023-03-03T08:03:36.205Z,0.7
2023-03-03T08:04:29.274Z,0.8
2023-03-03T08:05:29.351Z,0.8
2023-03-03T08:06:40.266Z,0.9
2023-03-03T08:07:29.389Z,0.9
2023-03-03T08:08:29.457Z,0.7
2023-03-03T08:09:38.533Z,0.8
2023-03-03T08:10:29.649Z,1
2023-03-03T08:11:29.614Z,1.2
2023-03-03T08:13:01.768Z,1.1
2023-03-03T08:13:29.799Z,0.8
2023-03-03T08:14:29.819Z,0.5
2023-03-03T08:15:39.741Z,0.7
2023-03-03T08:16:29.927Z,0.7
2023-03-03T08:17:35.034Z,1
2023-03-03T08:18:46.748Z,1.1
2023-03-03T08:19:30.110Z,1.2
2023-03-03T08:20:30.175Z,1.3
2023-03-03T08:21:42.487Z,1.5
2023-03-03T08:22:30.296Z,1.5
2023-03-03T08:23:30.416Z,1.5
2023-03-03T08:24:46.795Z,1.3
2023-03-03T08:25:30.548Z,1.1
2023-03-03T08:26:30.708Z,1.3
2023-03-03T08:27:45.205Z,1.5
2023-03-03T08:28:30.739Z,1.6
2023-03-03T08:29:30.812Z,1.5
2023-03-03T08:30:44.241Z,1.5
2023-03-03T08:31:40.596Z,1.5
2023-03-03T08:32:49.600Z,1.4
2023-03-03T08:34:15.521Z,1.2
2023-03-03T08:34:49.717Z,1.1
2023-03-03T08:41:50.085Z,1.5
2023-03-03T08:43:08.029Z,1.6
2023-03-03T08:43:50.150Z,1.7
2023-03-03T08:44:50.204Z,1.8
2023-03-03T08:45:56.010Z,1.6
2023-03-03T08:46:50.330Z,1.5
2023-03-03T08:47:50.325Z,1.6
2023-03-03T08:49:00.976Z,1.6
2023-03-03T08:49:50.423Z,1.6
2023-03-03T08:50:50.468Z,1.6
2023-03-03T08:51:57.453Z,1.3
2023-03-03T08:52:50.645Z,1.4
2023-03-03T08:53:50.716Z,1.4
2023-03-03T08:55:02.769Z,1.3
2023-03-03T08:55:50.827Z,1.4
2023-03-03T08:56:50.915Z,1.6
2023-03-03T08:58:00.563Z,1.5
2023-03-03T08:59:01.519Z,1.4
2023-03-03T08:59:50.996Z,1.4
2023-03-03T09:01:02.804Z,1.6
2023-03-03T09:01:51.155Z,1.7
2023-03-03T09:02:51.167Z,1.8
2023-03-03T09:04:02.778Z,1.6
2023-03-03T09:04:51.393Z,1.5
2023-03-03T09:05:51.481Z,1.4
2023-03-03T09:07:05.946Z,1.5
2023-03-03T09:07:51.429Z,1.5
2023-03-03T09:08:51.473Z,1.5
2023-03-03T09:10:07.040Z,1.7
2023-03-03T09:10:59.484Z,1.8
2023-03-03T09:12:34.284Z,1.8
2023-03-03T09:32:09.453Z,1.8
2023-03-03T09:33:12.557Z,2
2023-03-03T09:34:20.458Z,2.2
2023-03-03T09:35:09.499Z,2.1
2023-03-03T09:36:09.536Z,1.8
2023-03-03T09:37:25.963Z,1.9
2023-03-03T09:38:09.658Z,2
2023-03-03T09:39:09.693Z,1.9
2023-03-03T09:40:21.922Z,1.7
2023-03-03T09:41:09.777Z,1.9
2023-03-03T09:42:17.516Z,2
2023-03-03T09:43:36.428Z,2.3
2023-03-03T09:44:17.603Z,2.4
2023-03-03T09:45:17.621Z,2.2
2023-03-03T09:46:25.851Z,2
2023-03-03T09:47:17.840Z,2.1
2023-03-03T09:48:17.847Z,2
2023-03-03T09:49:23.156Z,2.1
2023-03-03T09:50:17.964Z,2.1
2023-03-03T09:51:18.030Z,2
2023-03-03T09:52:28.337Z,2
2023-03-03T09:53:18.211Z,2.2
2023-03-03T09:54:18.256Z,3.2
2023-03-03T09:55:27.769Z,2.4
2023-03-03T09:56:18.400Z,2
2023-03-03T09:57:18.421Z,2.1
2023-03-03T09:58:34.501Z,2.3
2023-03-03T09:59:18.530Z,2.5
2023-03-03T10:00:18.579Z,2.4
2023-03-03T10:01:39.703Z,2.3
2023-03-03T10:02:18.712Z,2
2023-03-03T10:03:18.760Z,2
2023-03-03T10:04:37.578Z,1.9
2023-03-03T10:05:18.803Z,1.9
2023-03-03T10:06:18.843Z,1.9
2023-03-03T10:07:40.273Z,1.9
2023-03-03T10:08:18.967Z,2
2023-03-03T10:09:19.076Z,2
2023-03-03T10:10:40.322Z,2
2023-03-03T10:11:19.168Z,2
2023-03-03T10:12:19.226Z,2
2023-03-03T10:13:54.345Z,2.3
2023-03-03T10:15:06.687Z,2.2
2023-03-03T10:16:05.615Z,2.2
2023-03-03T10:17:20.551Z,2.3
2023-03-03T10:18:35.562Z,2.4
2023-03-03T10:19:51.299Z,2.5
2023-03-03T10:21:11.089Z,2.4
2023-03-03T10:22:11.710Z,2.4
2023-03-03T10:23:14.064Z,2.4
2023-03-03T10:24:11.665Z,2.3
2023-03-03T10:25:15.042Z,2.3
2023-03-03T10:26:11.748Z,2.5
2023-03-03T10:27:14.180Z,2.5
2023-03-03T10:28:11.853Z,2.5
2023-03-03T10:29:22.046Z,2.5
2023-03-03T10:30:11.959Z,2.5
2023-03-03T10:32:12.546Z,2.8
2023-03-03T10:33:18.624Z,2.5
2023-03-03T10:34:12.232Z,2.5
2023-03-03T10:35:25.113Z,2.4
2023-03-03T10:36:12.344Z,2.4
2023-03-03T10:37:24.012Z,2.6
2023-03-03T10:38:12.389Z,2.7
2023-03-03T10:39:25.779Z,2.6
2023-03-03T10:40:12.498Z,2.4
2023-03-03T10:41:26.009Z,2.5
2023-03-03T10:42:12.599Z,2.7
2023-03-03T10:43:32.004Z,2.8
2023-03-03T10:44:15.797Z,2.8
2023-03-03T10:45:27.078Z,2.8
2023-03-03T10:46:12.932Z,2.7
2023-03-03T10:47:29.368Z,2.8
2023-03-03T10:48:12.866Z,2.8
2023-03-03T10:49:28.813Z,2.9
2023-03-03T10:50:12.922Z,3.2
2023-03-03T10:51:30.248Z,3.5
2023-03-03T10:52:13.047Z,3.5
2023-03-03T10:53:33.238Z,3.5
2023-03-03T10:54:13.171Z,3.5
2023-03-03T10:55:32.518Z,3.2
2023-03-03T10:56:13.300Z,3.3
2023-03-03T10:57:32.172Z,3.5
2023-03-03T10:58:13.498Z,3.5
2023-03-03T10:59:14.576Z,3.5
2023-03-03T11:00:13.597Z,3.4
2023-03-03T11:01:13.736Z,3.4
2023-03-03T11:02:20.234Z,3.4
2023-03-03T11:03:13.807Z,3.7
2023-03-03T11:04:13.850Z,3.9
2023-03-03T11:05:25.628Z,3.7
2023-03-03T11:06:13.967Z,4
2023-03-03T11:07:14.029Z,4.3
2023-03-03T11:08:35.891Z,4.3
2023-03-03T11:09:14.113Z,4.3
2023-03-03T11:10:14.128Z,4.3
2023-03-03T11:11:34.017Z,4.2
2023-03-03T11:12:14.215Z,4.3
2023-03-03T11:13:14.254Z,4.1
2023-03-03T11:14:17.557Z,3.9
2023-03-03T11:15:14.399Z,4
2023-03-03T11:16:14.520Z,4.2
2023-03-03T11:17:27.963Z,4.2
2023-03-03T11:18:14.569Z,4.2
2023-03-03T11:19:14.659Z,4.3
2023-03-03T11:20:39.925Z,4.3
2023-03-03T11:21:14.735Z,4
2023-03-03T11:22:14.795Z,4
2023-03-03T11:23:41.146Z,4.1
2023-03-03T11:24:20.162Z,4.3
2023-03-03T11:25:14.970Z,4.1
2023-03-03T11:26:53.264Z,3.9
2023-03-03T11:27:15.086Z,3.8
2023-03-03T11:28:15.134Z,3.6
2023-03-03T11:29:50.218Z,3.7
2023-03-03T11:30:18.512Z,3.6
2023-03-03T11:31:15.358Z,3.5
2023-03-03T11:32:21.311Z,3.6
2023-03-03T11:33:15.439Z,3.8
2023-03-03T11:34:21.025Z,4.2
2023-03-03T11:35:15.531Z,4.7
2023-03-03T11:36:33.910Z,5.2
2023-03-03T11:37:15.668Z,6
2023-03-03T11:38:29.494Z,6.6
2023-03-03T11:39:15.799Z,6.7
2023-03-03T11:40:32.221Z,6.7
2023-03-03T11:41:15.961Z,7.3
2023-03-03T11:42:37.770Z,7.6
2023-03-03T11:43:26.413Z,7.8
2023-03-03T11:44:38.169Z,7.5
2023-03-03T11:45:26.573Z,6.7
2023-03-03T11:46:37.643Z,6.5
2023-03-03T11:47:16.381Z,6.4
2023-03-03T11:48:19.352Z,6.8
2023-03-03T11:49:16.536Z,7
2023-03-03T11:50:16.605Z,7.2
2023-03-03T11:51:28.438Z,7
2023-03-03T11:52:16.800Z,6.8
2023-03-03T11:53:16.822Z,6.4
2023-03-03T11:54:29.074Z,6.6
2023-03-03T11:55:16.947Z,7.2
2023-03-03T11:56:16.998Z,6.9
2023-03-03T11:57:43.428Z,6.8
2023-03-03T11:58:17.173Z,7
2023-03-03T11:59:17.255Z,7.3
2023-03-03T12:00:17.360Z,7.4
2023-03-03T12:01:17.392Z,7.5
2023-03-03T12:02:17.526Z,8.3
2023-03-03T12:03:44.357Z,8.4
2023-03-03T12:04:17.598Z,8.1
2023-03-03T12:05:18.594Z,7.6
2023-03-03T12:06:34.183Z,7.6
2023-03-03T12:07:19.249Z,8.3
2023-03-03T12:08:17.901Z,8.4
2023-03-03T12:09:48.579Z,8.7
2023-03-03T12:10:18.080Z,8.8
2023-03-03T12:11:18.150Z,8.9
2023-03-03T12:12:47.803Z,9.1
2023-03-03T12:13:20.482Z,9.6
2023-03-03T12:14:18.387Z,9.3
2023-03-03T12:15:30.254Z,8.9
2023-03-03T12:16:18.524Z,8.8
2023-03-03T12:17:19.206Z,8.7
2023-03-03T12:18:59.290Z,8.7
2023-03-03T12:19:28.815Z,9
2023-03-03T12:20:18.770Z,8.4
2023-03-03T12:21:28.928Z,7.7
2023-03-03T12:22:18.928Z,7.4
2023-03-03T12:23:30.098Z,7.8
2023-03-03T12:24:19.064Z,8.4
2023-03-03T12:25:29.803Z,8.6
2023-03-03T12:26:19.232Z,8.5
2023-03-03T12:27:27.959Z,8.3
2023-03-03T12:28:19.438Z,7.5
2023-03-03T12:29:32.130Z,7.3
2023-03-03T12:30:19.515Z,7.6
2023-03-03T12:31:29.782Z,8.2
2023-03-03T12:32:19.780Z,8.7
2023-03-03T12:33:30.296Z,9.1
2023-03-03T12:34:19.762Z,9.2
2023-03-03T12:35:31.076Z,9.4
2023-03-03T12:36:19.861Z,9.4
2023-03-03T12:37:43.578Z,9.3
2023-03-03T12:38:19.963Z,9.2
2023-03-03T12:39:43.946Z,9.3
2023-03-03T12:40:37.547Z,9
2023-03-03T12:41:48.476Z,8.8
2023-03-03T12:42:20.239Z,8.8
2023-03-03T12:43:38.807Z,8.1
2023-03-03T12:44:22.361Z,8.5
2023-03-03T12:45:20.433Z,8.6
2023-03-03T12:46:30.292Z,8.5
2023-03-03T12:47:39.970Z,8.6
2023-03-03T12:48:27.126Z,8.5
2023-03-03T12:50:08.378Z,8.5
2023-03-03T12:50:50.904Z,8.7
2023-03-03T12:51:20.782Z,9
2023-03-03T12:54:36.796Z,9.2
2023-03-03T12:54:36.798Z,9.7
2023-03-03T12:55:21.163Z,9.2
2023-03-03T12:56:21.201Z,8.6
2023-03-03T12:57:21.210Z,8.9
2023-03-03T12:58:22.307Z,8.8
2023-03-03T12:59:21.336Z,9.1
2023-03-03T13:00:43.447Z,9.5
2023-03-03T13:01:22.721Z,9.6
2023-03-03T13:02:21.938Z,9.3
2023-03-03T13:03:56.387Z,9.5
2023-03-03T13:04:25.516Z,9.7
2023-03-03T13:05:21.729Z,9.9
2023-03-03T13:06:21.986Z,9.7
2023-03-03T13:07:22.705Z,9.7
2023-03-03T13:08:22.026Z,9.6
2023-03-03T13:09:22.118Z,9.7
2023-03-03T13:10:22.122Z,9.6
2023-03-03T13:11:22.181Z,9.6
2023-03-03T13:12:22.340Z,9.6
2023-03-03T13:13:24.897Z,9.7
2023-03-03T13:14:27.447Z,10.1
2023-03-03T13:15:29.620Z,10
2023-03-03T13:16:26.497Z,10
2023-03-03T13:17:22.636Z,10
2023-03-03T13:18:22.594Z,10.2
2023-03-03T13:19:22.671Z,10.2
2023-03-03T13:20:22.753Z,9.9
2023-03-03T13:22:00.374Z,9.8
2023-03-03T13:22:22.881Z,9.5
2023-03-03T13:23:23.083Z,9.6
2023-03-03T13:24:26.288Z,9.7
2023-03-03T13:25:39.195Z,9.6
2023-03-03T13:26:23.226Z,10.1
2023-03-03T13:27:24.765Z,10.6
2023-03-03T13:28:23.439Z,10
2023-03-03T13:29:23.374Z,10.1
2023-03-03T13:31:10.366Z,10
2023-03-03T13:31:34.698Z,10
2023-03-03T13:42:24.293Z,9.8
2023-03-03T13:43:33.593Z,10
2023-03-03T13:44:29.320Z,10.1
2023-03-03T13:45:32.136Z,9.9
2023-03-03T13:46:24.429Z,10.1
2023-03-03T13:47:31.094Z,10.1
2023-03-03T13:48:24.474Z,9.9
2023-03-03T13:49:32.143Z,10
2023-03-03T13:50:24.605Z,9.8
2023-03-03T13:51:35.526Z,9.8
2023-03-03T13:53:32.781Z,9.8
2023-03-03T13:56:02.744Z,10
2023-03-03T13:58:58.830Z,9.3
2023-03-03T14:01:26.799Z,9.2
2023-03-03T14:02:09.147Z,9.1
2023-03-03T14:03:08.653Z,8.9
2023-03-03T14:04:24.755Z,9
2023-03-03T14:05:08.791Z,8.7
2023-03-03T14:06:08.786Z,9.1
2023-03-03T14:07:25.549Z,9.5
2023-03-03T14:08:08.969Z,9.6
2023-03-03T14:09:08.983Z,9.5
2023-03-03T14:10:28.008Z,9.4
2023-03-03T14:11:09.089Z,8.4
2023-03-03T14:12:09.127Z,8.4
2023-03-03T14:13:29.054Z,8.3
2023-03-03T14:14:09.438Z,8.3
2023-03-03T14:15:09.976Z,8.2
2023-03-03T14:16:30.697Z,8.5
2023-03-03T14:17:09.423Z,8.5
2023-03-03T14:18:09.785Z,8.7
2023-03-03T14:19:32.629Z,8.6
2023-03-03T14:20:09.555Z,8.6
2023-03-03T14:21:09.655Z,8.5
2023-03-03T14:22:34.428Z,8.3
2023-03-03T14:23:09.762Z,8.1
2023-03-03T14:24:09.840Z,7.9
2023-03-03T14:25:35.565Z,7.8
2023-03-03T14:26:09.994Z,8.1
2023-03-03T14:27:10.052Z,8.2
2023-03-03T14:28:36.226Z,7.8
2023-03-03T14:29:10.173Z,7.9
2023-03-03T14:30:10.346Z,8.4
2023-03-03T14:31:34.115Z,8.1
2023-03-03T14:32:10.416Z,7.8
2023-03-03T14:33:10.446Z,7.9
2023-03-03T14:34:37.813Z,8
2023-03-03T14:35:10.563Z,7.9
2023-03-03T14:36:10.645Z,7.6
2023-03-03T14:37:36.203Z,7.5
2023-03-03T14:38:10.759Z,7.8
2023-03-03T14:39:10.801Z,8
2023-03-03T14:40:39.021Z,8.2
2023-03-03T14:41:10.971Z,8.1
2023-03-03T14:42:11.040Z,7.8
2023-03-03T14:43:38.197Z,7.8
2023-03-03T14:45:31.542Z,8.2
2023-03-03T14:46:11.271Z,8.2
2023-03-03T14:47:11.320Z,8
2023-03-03T14:48:12.870Z,7.8
2023-03-03T14:49:11.469Z,7.5
2023-03-03T14:50:11.487Z,7.5
2023-03-03T14:51:11.562Z,7.3
2023-03-03T14:52:24.233Z,7.7
2023-03-03T14:53:11.681Z,7.7
2023-03-03T14:54:11.775Z,7.7
2023-03-03T14:55:11.796Z,7.6
2023-03-03T14:56:11.841Z,7.6
2023-03-03T14:57:11.917Z,7.6
2023-03-03T14:58:29.343Z,7.3
2023-03-03T14:59:12.122Z,7.5
2023-03-03T15:00:12.147Z,7.3
2023-03-03T15:01:12.221Z,7.1
2023-03-03T15:02:24.005Z,7
2023-03-03T15:04:28.499Z,6.8
2023-03-03T15:04:53.834Z,7
2023-03-03T15:06:08.821Z,7.2
2023-03-03T15:07:27.123Z,6.9
2023-03-03T15:08:38.824Z,6.8
2023-03-03T15:10:02.087Z,6.9
2023-03-03T15:10:56.861Z,6.8
2023-03-03T15:11:56.935Z,6.8
2023-03-03T15:12:59.633Z,7.2
2023-03-03T15:13:57.079Z,7.3
2023-03-03T15:14:57.022Z,7.3
2023-03-03T15:16:00.129Z,7.3
2023-03-03T15:16:57.166Z,7
2023-03-03T15:17:57.183Z,7.1
2023-03-03T15:19:02.456Z,7.2
2023-03-03T15:19:57.253Z,6.9
2023-03-03T15:20:57.316Z,6.7
2023-03-03T15:22:32.249Z,6.5
2023-03-03T15:22:57.413Z,6.6
2023-03-03T15:23:57.494Z,6.7
2023-03-03T15:25:07.582Z,6.7
2023-03-03T15:26:18.181Z,6.9
2023-03-03T15:26:57.650Z,6.8
2023-03-03T15:28:21.759Z,6.7
2023-03-03T15:28:57.705Z,6.6
2023-03-03T15:30:06.411Z,6.6
2023-03-03T15:31:06.628Z,6.8
2023-03-03T15:31:57.962Z,6.7
2023-03-03T15:32:58.171Z,6.6
2023-03-03T15:34:06.510Z,6.4
2023-03-03T15:35:03.093Z,6.2
2023-03-03T15:36:15.173Z,6.2
2023-03-03T15:37:06.607Z,6.2
2023-03-03T15:37:59.726Z,6.1
2023-03-03T15:38:59.696Z,6.2
2023-03-03T15:40:08.852Z,6.3
2023-03-03T15:40:58.467Z,6.3
2023-03-03T15:41:58.585Z,6.2
2023-03-03T15:43:09.978Z,6.1
2023-03-03T15:43:58.676Z,6
2023-03-03T15:44:58.769Z,6.2
2023-03-03T15:46:27.491Z,6.1
2023-03-03T15:46:58.885Z,5.8
2023-03-03T15:47:58.927Z,5.8
2023-03-03T15:49:14.268Z,6
2023-03-03T15:49:59.074Z,5.9
2023-03-03T15:50:59.118Z,5.8
2023-03-03T15:52:08.290Z,5.8
2023-03-03T15:53:04.274Z,5.7
2023-03-03T15:53:59.313Z,5.8
2023-03-03T15:55:22.564Z,5.9
2023-03-03T15:55:59.444Z,6
2023-03-03T15:56:59.548Z,5.9
2023-03-03T15:58:14.584Z,5.6
2023-03-03T15:58:59.634Z,5.6
2023-03-03T15:59:59.722Z,5.7
2023-03-03T16:01:14.429Z,5.7
2023-03-03T16:01:59.844Z,5.5
2023-03-03T16:02:59.874Z,5.4
2023-03-03T16:04:21.509Z,5.5
2023-03-03T16:04:59.998Z,5.4
2023-03-03T16:06:00.026Z,5.5
2023-03-03T16:07:26.697Z,5.4
2023-03-03T16:08:00.121Z,5.4
2023-03-03T16:09:00.134Z,5.3
2023-03-03T16:10:00.193Z,5.5
2023-03-03T16:11:00.229Z,5.6
2023-03-03T16:12:00.271Z,5.5
2023-03-03T16:13:20.505Z,5.4
2023-03-03T16:14:00.530Z,5.5
2023-03-03T16:15:00.485Z,5.6
2023-03-03T16:16:18.723Z,5.6
2023-03-03T16:17:00.616Z,5.5
2023-03-03T16:18:00.807Z,5.4
2023-03-03T16:19:32.244Z,5.3
2023-03-03T16:20:00.748Z,5.5
2023-03-03T16:21:01.354Z,5.3
2023-03-03T16:22:58.513Z,5.2
2023-03-03T16:23:05.948Z,5.3
2023-03-03T16:24:00.996Z,5.1
2023-03-03T16:25:43.281Z,5.1
2023-03-03T16:26:01.080Z,5.2
2023-03-03T16:27:01.189Z,5.1
2023-03-03T16:28:31.557Z,5.2
2023-03-03T16:29:01.315Z,5.2
2023-03-03T16:30:01.357Z,5.2
2023-03-03T16:31:34.254Z,5
2023-03-03T16:32:01.658Z,5.1
2023-03-03T16:33:01.550Z,4.8
2023-03-03T16:34:34.661Z,4.9
2023-03-03T16:35:01.630Z,5
2023-03-03T16:36:01.801Z,4.9
2023-03-03T16:37:13.700Z,5
2023-03-03T16:38:06.992Z,5.1
2023-03-03T16:39:06.970Z,5
2023-03-03T16:40:36.934Z,4.8
2023-03-03T16:41:02.009Z,4.7
2023-03-03T16:42:02.112Z,4.8
2023-03-03T16:43:38.338Z,4.9
2023-03-03T16:44:02.254Z,4.8
2023-03-03T16:45:02.307Z,4.8
2023-03-03T16:46:36.544Z,4.9
2023-03-03T16:47:02.477Z,4.8
2023-03-03T16:48:02.518Z,4.6
2023-03-03T16:49:02.570Z,4.8
2023-03-03T16:50:02.692Z,4.6
2023-03-03T16:51:02.719Z,4.4
2023-03-03T16:52:07.116Z,4.4
2023-03-03T16:53:09.083Z,4.3
2023-03-03T16:54:03.057Z,4.2
2023-03-03T16:55:08.379Z,4.2
2023-03-03T16:56:15.264Z,4.3
2023-03-03T16:57:09.166Z,4.3
2023-03-03T16:58:03.248Z,4.3